sensor_id;sensor_type;location;lat;lon;timestamp;temperature;humidity
31819;DHT22;18384;48.860;9.188;2024-02-21T00:01:50;9.20;96.30
31819;DHT22;18384;48.860;9.188;2024-02-21T00:04:17;9.20;96.10
31819;DHT22;18384;48.860;9.188;2024-02-21T00:06:43;9.20;95.80
31819;DHT22;18384;48.860;9.188;2024-02-21T00:09:09;9.20;96.10
31819;DHT22;18384;48.860;9.188;2024-02-21T00:11:35;9.20;96.20
31819;DHT22;18384;48.860;9.188;2024-02-21T00:14:01;9.20;96.20
31819;DHT22;18384;48.860;9.188;2024-02-21T00:16:27;9.20;96.10
31819;DHT22;18384;48.860;9.188;2024-02-21T00:18:53;9.20;96.20
31819;DHT22;18384;48.860;9.188;2024-02-21T00:21:19;9.20;96.00
31819;DHT22;18384;48.860;9.188;2024-02-21T00:23:45;9.30;95.80
31819;DHT22;18384;48.860;9.188;2024-02-21T00:26:12;9.30;96.10
31819;DHT22;18384;48.860;9.188;2024-02-21T00:28:41;9.20;96.10
31819;DHT22;18384;48.860;9.188;2024-02-21T00:31:07;9.20;96.20
31819;DHT22;18384;48.860;9.188;2024-02-21T00:33:34;9.20;96.30
31819;DHT22;18384;48.860;9.188;2024-02-21T00:36:00;9.30;96.10
31819;DHT22;18384;48.860;9.188;2024-02-21T00:38:26;9.20;95.70
31819;DHT22;18384;48.860;9.188;2024-02-21T00:40:52;9.30;96.00
31819;DHT22;18384;48.860;9.188;2024-02-21T00:43:18;9.20;95.80
31819;DHT22;18384;48.860;9.188;2024-02-21T00:45:44;9.20;95.80
31819;DHT22;18384;48.860;9.188;2024-02-21T00:48:11;9.20;96.00
31819;DHT22;18384;48.860;9.188;2024-02-21T00:50:37;9.10;95.90
31819;DHT22;18384;48.860;9.188;2024-02-21T00:53:03;9.10;95.70
31819;DHT22;18384;48.860;9.188;2024-02-21T00:55:29;9.10;95.70
31819;DHT22;18384;48.860;9.188;2024-02-21T00:57:55;9.10;96.00
31819;DHT22;18384;48.860;9.188;2024-02-21T01:00:22;9.00;95.80
31819;DHT22;18384;48.860;9.188;2024-02-21T01:02:48;9.00;96.00
31819;DHT22;18384;48.860;9.188;2024-02-21T01:05:14;9.00;96.00
31819;DHT22;18384;48.860;9.188;2024-02-21T01:07:40;9.00;96.00
31819;DHT22;18384;48.860;9.188;2024-02-21T01:10:06;9.00;96.10
31819;DHT22;18384;48.860;9.188;2024-02-21T01:12:33;9.00;96.00
31819;DHT22;18384;48.860;9.188;2024-02-21T01:14:59;9.00;96.20
31819;DHT22;18384;48.860;9.188;2024-02-21T01:17:25;9.10;96.00
31819;DHT22;18384;48.860;9.188;2024-02-21T01:19:51;9.00;95.80
31819;DHT22;18384;48.860;9.188;2024-02-21T01:22:17;9.10;95.80
31819;DHT22;18384;48.860;9.188;2024-02-21T01:24:43;9.00;95.60
31819;DHT22;18384;48.860;9.188;2024-02-21T01:27:09;9.00;95.90
31819;DHT22;18384;48.860;9.188;2024-02-21T01:29:36;9.00;95.90
31819;DHT22;18384;48.860;9.188;2024-02-21T01:32:02;8.90;95.80
31819;DHT22;18384;48.860;9.188;2024-02-21T01:34:28;8.90;95.80
31819;DHT22;18384;48.860;9.188;2024-02-21T01:36:54;8.90;95.80
31819;DHT22;18384;48.860;9.188;2024-02-21T01:39:20;8.90;95.90
31819;DHT22;18384;48.860;9.188;2024-02-21T01:41:47;8.90;95.70
31819;DHT22;18384;48.860;9.188;2024-02-21T01:44:13;8.90;95.80
31819;DHT22;18384;48.860;9.188;2024-02-21T01:46:39;8.90;95.50
31819;DHT22;18384;48.860;9.188;2024-02-21T01:49:06;8.90;95.70
31819;DHT22;18384;48.860;9.188;2024-02-21T01:51:32;9.00;95.70
31819;DHT22;18384;48.860;9.188;2024-02-21T01:53:58;9.00;95.60
31819;DHT22;18384;48.860;9.188;2024-02-21T01:56:24;9.00;95.70
31819;DHT22;18384;48.860;9.188;2024-02-21T01:58:51;9.00;95.50
31819;DHT22;18384;48.860;9.188;2024-02-21T02:01:17;9.00;95.60
31819;DHT22;18384;48.860;9.188;2024-02-21T02:03:45;9.00;95.50
31819;DHT22;18384;48.860;9.188;2024-02-21T02:06:12;8.90;95.60
31819;DHT22;18384;48.860;9.188;2024-02-21T02:08:38;9.00;95.60
31819;DHT22;18384;48.860;9.188;2024-02-21T02:11:04;9.00;95.70
31819;DHT22;18384;48.860;9.188;2024-02-21T02:13:32;9.20;95.50
31819;DHT22;18384;48.860;9.188;2024-02-21T02:15:58;9.00;95.40
31819;DHT22;18384;48.860;9.188;2024-02-21T02:18:24;9.10;95.30
31819;DHT22;18384;48.860;9.188;2024-02-21T02:20:50;9.10;95.30
31819;DHT22;18384;48.860;9.188;2024-02-21T02:23:27;9.10;95.40
31819;DHT22;18384;48.860;9.188;2024-02-21T02:25:55;9.20;95.30
31819;DHT22;18384;48.860;9.188;2024-02-21T02:28:22;9.20;95.30
31819;DHT22;18384;48.860;9.188;2024-02-21T02:30:49;9.30;95.30
31819;DHT22;18384;48.860;9.188;2024-02-21T02:33:15;9.20;95.10
31819;DHT22;18384;48.860;9.188;2024-02-21T02:35:43;9.20;95.00
31819;DHT22;18384;48.860;9.188;2024-02-21T02:38:10;9.20;95.10
31819;DHT22;18384;48.860;9.188;2024-02-21T02:40:39;9.20;95.30
31819;DHT22;18384;48.860;9.188;2024-02-21T02:43:08;9.30;95.10
31819;DHT22;18384;48.860;9.188;2024-02-21T02:45:35;9.30;95.00
31819;DHT22;18384;48.860;9.188;2024-02-21T02:48:01;9.30;95.10
31819;DHT22;18384;48.860;9.188;2024-02-21T02:50:28;9.20;95.70
31819;DHT22;18384;48.860;9.188;2024-02-21T02:52:54;9.20;95.80
31819;DHT22;18384;48.860;9.188;2024-02-21T02:55:21;9.20;96.40
31819;DHT22;18384;48.860;9.188;2024-02-21T02:57:47;9.20;96.40
31819;DHT22;18384;48.860;9.188;2024-02-21T03:00:14;6.90;96.00
31819;DHT22;18384;48.860;9.188;2024-02-21T03:02:42;9.20;96.80
31819;DHT22;18384;48.860;9.188;2024-02-21T03:05:14;9.20;96.90
31819;DHT22;18384;48.860;9.188;2024-02-21T03:07:45;9.20;96.50
31819;DHT22;18384;48.860;9.188;2024-02-21T03:10:12;9.40;96.00
31819;DHT22;18384;48.860;9.188;2024-02-21T03:12:38;9.30;95.70
31819;DHT22;18384;48.860;9.188;2024-02-21T03:15:05;9.30;95.90
31819;DHT22;18384;48.860;9.188;2024-02-21T03:17:32;9.30;96.70
31819;DHT22;18384;48.860;9.188;2024-02-21T03:20:04;9.30;97.20
31819;DHT22;18384;48.860;9.188;2024-02-21T03:22:34;9.30;97.20
31819;DHT22;18384;48.860;9.188;2024-02-21T03:25:00;9.30;97.50
31819;DHT22;18384;48.860;9.188;2024-02-21T03:27:26;9.30;97.30
31819;DHT22;18384;48.860;9.188;2024-02-21T03:29:52;9.30;97.70
31819;DHT22;18384;48.860;9.188;2024-02-21T03:32:18;9.30;97.70
31819;DHT22;18384;48.860;9.188;2024-02-21T03:34:44;9.30;97.70
31819;DHT22;18384;48.860;9.188;2024-02-21T03:37:10;9.30;97.80
31819;DHT22;18384;48.860;9.188;2024-02-21T03:39:37;9.30;97.70
31819;DHT22;18384;48.860;9.188;2024-02-21T03:42:03;9.20;97.30
31819;DHT22;18384;48.860;9.188;2024-02-21T03:44:33;9.30;97.50
31819;DHT22;18384;48.860;9.188;2024-02-21T03:47:00;9.20;97.90
31819;DHT22;18384;48.860;9.188;2024-02-21T03:49:26;9.20;97.30
31819;DHT22;18384;48.860;9.188;2024-02-21T03:51:52;9.20;97.30
31819;DHT22;18384;48.860;9.188;2024-02-21T03:54:19;9.20;97.50
31819;DHT22;18384;48.860;9.188;2024-02-21T03:56:45;9.20;97.50
31819;DHT22;18384;48.860;9.188;2024-02-21T03:59:13;9.20;97.60
31819;DHT22;18384;48.860;9.188;2024-02-21T04:01:39;9.20;97.60
31819;DHT22;18384;48.860;9.188;2024-02-21T04:04:05;9.20;97.50
31819;DHT22;18384;48.860;9.188;2024-02-21T04:06:32;9.20;97.60
31819;DHT22;18384;48.860;9.188;2024-02-21T04:08:58;9.10;97.50
31819;DHT22;18384;48.860;9.188;2024-02-21T04:11:24;9.20;97.40
31819;DHT22;18384;48.860;9.188;2024-02-21T04:13:50;9.20;97.70
31819;DHT22;18384;48.860;9.188;2024-02-21T04:16:17;9.10;97.50
31819;DHT22;18384;48.860;9.188;2024-02-21T04:18:43;9.10;97.10
31819;DHT22;18384;48.860;9.188;2024-02-21T04:21:10;9.10;97.20
31819;DHT22;18384;48.860;9.188;2024-02-21T04:23:39;9.00;97.20
31819;DHT22;18384;48.860;9.188;2024-02-21T04:26:05;9.00;97.00
31819;DHT22;18384;48.860;9.188;2024-02-21T04:28:31;9.00;96.70
31819;DHT22;18384;48.860;9.188;2024-02-21T04:30:57;8.90;96.60
31819;DHT22;18384;48.860;9.188;2024-02-21T04:33:23;8.90;96.80
31819;DHT22;18384;48.860;9.188;2024-02-21T04:35:50;8.90;96.40
31819;DHT22;18384;48.860;9.188;2024-02-21T04:38:17;8.80;96.80
31819;DHT22;18384;48.860;9.188;2024-02-21T04:40:43;8.80;97.10
31819;DHT22;18384;48.860;9.188;2024-02-21T04:43:09;8.70;97.20
31819;DHT22;18384;48.860;9.188;2024-02-21T04:45:35;8.70;97.10
31819;DHT22;18384;48.860;9.188;2024-02-21T04:48:01;8.70;97.10
31819;DHT22;18384;48.860;9.188;2024-02-21T04:50:27;8.70;97.10
31819;DHT22;18384;48.860;9.188;2024-02-21T04:52:54;8.70;97.00
31819;DHT22;18384;48.860;9.188;2024-02-21T04:55:20;8.70;96.80
31819;DHT22;18384;48.860;9.188;2024-02-21T04:57:46;8.60;97.00
31819;DHT22;18384;48.860;9.188;2024-02-21T05:00:12;8.60;97.00
31819;DHT22;18384;48.860;9.188;2024-02-21T05:02:39;8.60;97.00
31819;DHT22;18384;48.860;9.188;2024-02-21T05:05:05;8.60;97.10
31819;DHT22;18384;48.860;9.188;2024-02-21T05:07:31;8.60;97.20
31819;DHT22;18384;48.860;9.188;2024-02-21T05:09:57;8.50;97.00
31819;DHT22;18384;48.860;9.188;2024-02-21T05:12:23;8.50;97.10
31819;DHT22;18384;48.860;9.188;2024-02-21T05:14:49;8.40;97.30
31819;DHT22;18384;48.860;9.188;2024-02-21T05:17:15;8.50;97.60
31819;DHT22;18384;48.860;9.188;2024-02-21T05:19:42;8.40;97.60
31819;DHT22;18384;48.860;9.188;2024-02-21T05:22:08;8.40;97.60
31819;DHT22;18384;48.860;9.188;2024-02-21T05:24:34;8.40;97.60
31819;DHT22;18384;48.860;9.188;2024-02-21T05:27:02;8.30;97.70
31819;DHT22;18384;48.860;9.188;2024-02-21T05:29:28;8.30;97.80
31819;DHT22;18384;48.860;9.188;2024-02-21T05:31:57;8.30;97.70
31819;DHT22;18384;48.860;9.188;2024-02-21T05:34:23;8.30;97.50
31819;DHT22;18384;48.860;9.188;2024-02-21T05:36:51;8.30;97.80
31819;DHT22;18384;48.860;9.188;2024-02-21T05:39:17;8.30;97.70
31819;DHT22;18384;48.860;9.188;2024-02-21T05:41:44;8.20;97.80
31819;DHT22;18384;48.860;9.188;2024-02-21T05:44:10;8.30;97.60
31819;DHT22;18384;48.860;9.188;2024-02-21T05:46:36;8.30;97.50
31819;DHT22;18384;48.860;9.188;2024-02-21T05:49:03;8.30;97.50
31819;DHT22;18384;48.860;9.188;2024-02-21T05:51:33;8.30;97.10
31819;DHT22;18384;48.860;9.188;2024-02-21T05:53:59;8.20;97.00
31819;DHT22;18384;48.860;9.188;2024-02-21T05:56:25;8.20;96.80
31819;DHT22;18384;48.860;9.188;2024-02-21T05:58:51;8.20;97.00
31819;DHT22;18384;48.860;9.188;2024-02-21T06:01:18;8.20;96.90
31819;DHT22;18384;48.860;9.188;2024-02-21T06:03:44;8.20;96.90
31819;DHT22;18384;48.860;9.188;2024-02-21T06:06:11;8.20;96.60
31819;DHT22;18384;48.860;9.188;2024-02-21T06:08:40;8.10;96.90
31819;DHT22;18384;48.860;9.188;2024-02-21T06:11:06;8.10;96.80
31819;DHT22;18384;48.860;9.188;2024-02-21T06:13:32;8.10;96.70
31819;DHT22;18384;48.860;9.188;2024-02-21T06:15:58;8.10;96.60
31819;DHT22;18384;48.860;9.188;2024-02-21T06:18:24;8.10;96.70
31819;DHT22;18384;48.860;9.188;2024-02-21T06:20:51;8.00;96.90
31819;DHT22;18384;48.860;9.188;2024-02-21T06:23:17;8.00;96.80
31819;DHT22;18384;48.860;9.188;2024-02-21T06:25:43;8.00;96.80
31819;DHT22;18384;48.860;9.188;2024-02-21T06:28:09;8.10;96.70
31819;DHT22;18384;48.860;9.188;2024-02-21T06:30:36;8.00;96.40
31819;DHT22;18384;48.860;9.188;2024-02-21T06:33:02;8.00;96.40
31819;DHT22;18384;48.860;9.188;2024-02-21T06:35:28;8.00;96.80
31819;DHT22;18384;48.860;9.188;2024-02-21T06:37:55;8.00;96.60
31819;DHT22;18384;48.860;9.188;2024-02-21T06:40:22;8.00;96.60
31819;DHT22;18384;48.860;9.188;2024-02-21T06:42:49;8.00;96.60
31819;DHT22;18384;48.860;9.188;2024-02-21T06:45:16;8.00;96.80
31819;DHT22;18384;48.860;9.188;2024-02-21T06:47:43;8.00;97.20
31819;DHT22;18384;48.860;9.188;2024-02-21T06:50:09;8.00;97.20
31819;DHT22;18384;48.860;9.188;2024-02-21T06:52:38;8.00;97.20
31819;DHT22;18384;48.860;9.188;2024-02-21T06:55:04;8.10;97.20
31819;DHT22;18384;48.860;9.188;2024-02-21T06:57:30;8.10;97.20
31819;DHT22;18384;48.860;9.188;2024-02-21T06:59:56;8.10;97.10
31819;DHT22;18384;48.860;9.188;2024-02-21T07:02:22;8.20;97.20
31819;DHT22;18384;48.860;9.188;2024-02-21T07:04:48;8.20;96.90
31819;DHT22;18384;48.860;9.188;2024-02-21T07:07:15;8.20;97.20
31819;DHT22;18384;48.860;9.188;2024-02-21T07:09:41;8.20;97.90
31819;DHT22;18384;48.860;9.188;2024-02-21T07:12:07;8.30;97.30
31819;DHT22;18384;48.860;9.188;2024-02-21T07:14:33;8.30;97.00
31819;DHT22;18384;48.860;9.188;2024-02-21T07:16:59;8.30;97.00
31819;DHT22;18384;48.860;9.188;2024-02-21T07:19:25;8.40;97.00
31819;DHT22;18384;48.860;9.188;2024-02-21T07:21:51;8.40;96.60
31819;DHT22;18384;48.860;9.188;2024-02-21T07:24:18;8.40;96.40
31819;DHT22;18384;48.860;9.188;2024-02-21T07:26:44;8.40;95.90
31819;DHT22;18384;48.860;9.188;2024-02-21T07:29:10;8.50;95.90
31819;DHT22;18384;48.860;9.188;2024-02-21T07:31:43;8.50;95.80
31819;DHT22;18384;48.860;9.188;2024-02-21T07:34:10;8.60;95.80
31819;DHT22;18384;48.860;9.188;2024-02-21T07:36:36;8.70;95.60
31819;DHT22;18384;48.860;9.188;2024-02-21T07:39:04;8.70;95.70
31819;DHT22;18384;48.860;9.188;2024-02-21T07:41:30;8.80;95.60
31819;DHT22;18384;48.860;9.188;2024-02-21T07:43:57;8.80;95.60
31819;DHT22;18384;48.860;9.188;2024-02-21T07:46:23;8.90;95.90
31819;DHT22;18384;48.860;9.188;2024-02-21T07:48:50;9.00;95.90
31819;DHT22;18384;48.860;9.188;2024-02-21T07:51:16;9.10;95.40
31819;DHT22;18384;48.860;9.188;2024-02-21T07:53:44;9.20;95.40
31819;DHT22;18384;48.860;9.188;2024-02-21T07:56:15;9.30;94.90
31819;DHT22;18384;48.860;9.188;2024-02-21T07:58:41;9.40;94.80
31819;DHT22;18384;48.860;9.188;2024-02-21T08:01:08;9.40;95.20
31819;DHT22;18384;48.860;9.188;2024-02-21T08:03:35;9.50;94.90
31819;DHT22;18384;48.860;9.188;2024-02-21T08:06:02;9.60;94.80
31819;DHT22;18384;48.860;9.188;2024-02-21T08:08:29;9.70;94.40
31819;DHT22;18384;48.860;9.188;2024-02-21T08:10:55;9.70;94.10
31819;DHT22;18384;48.860;9.188;2024-02-21T08:13:21;9.80;94.50
31819;DHT22;18384;48.860;9.188;2024-02-21T08:15:47;9.90;94.00
31819;DHT22;18384;48.860;9.188;2024-02-21T08:18:13;10.00;93.80
31819;DHT22;18384;48.860;9.188;2024-02-21T08:20:39;10.10;93.60
31819;DHT22;18384;48.860;9.188;2024-02-21T08:23:06;10.20;94.10
31819;DHT22;18384;48.860;9.188;2024-02-21T08:25:32;10.30;94.10
31819;DHT22;18384;48.860;9.188;2024-02-21T08:27:59;10.30;93.50
31819;DHT22;18384;48.860;9.188;2024-02-21T08:30:25;10.40;93.20
31819;DHT22;18384;48.860;9.188;2024-02-21T08:32:51;10.30;92.80
31819;DHT22;18384;48.860;9.188;2024-02-21T08:35:19;10.40;92.90
31819;DHT22;18384;48.860;9.188;2024-02-21T08:37:48;10.50;93.40
31819;DHT22;18384;48.860;9.188;2024-02-21T08:40:14;10.50;93.00
31819;DHT22;18384;48.860;9.188;2024-02-21T08:42:43;10.50;92.60
31819;DHT22;18384;48.860;9.188;2024-02-21T08:45:10;10.50;92.20
31819;DHT22;18384;48.860;9.188;2024-02-21T08:47:39;10.50;92.50
31819;DHT22;18384;48.860;9.188;2024-02-21T08:50:07;10.50;92.20
31819;DHT22;18384;48.860;9.188;2024-02-21T08:52:35;10.50;92.30
31819;DHT22;18384;48.860;9.188;2024-02-21T08:55:01;10.50;92.20
31819;DHT22;18384;48.860;9.188;2024-02-21T08:57:27;10.60;91.60
31819;DHT22;18384;48.860;9.188;2024-02-21T08:59:53;10.70;92.30
31819;DHT22;18384;48.860;9.188;2024-02-21T09:02:19;10.80;92.20
31819;DHT22;18384;48.860;9.188;2024-02-21T09:04:45;10.80;92.40
31819;DHT22;18384;48.860;9.188;2024-02-21T09:07:12;10.90;92.20
31819;DHT22;18384;48.860;9.188;2024-02-21T09:09:38;11.00;92.10
31819;DHT22;18384;48.860;9.188;2024-02-21T09:12:06;11.00;92.30
31819;DHT22;18384;48.860;9.188;2024-02-21T09:14:33;11.00;91.70
31819;DHT22;18384;48.860;9.188;2024-02-21T09:16:59;11.10;91.80
31819;DHT22;18384;48.860;9.188;2024-02-21T09:19:26;10.30;91.50
31819;DHT22;18384;48.860;9.188;2024-02-21T09:21:52;11.10;91.30
31819;DHT22;18384;48.860;9.188;2024-02-21T09:24:18;11.10;91.80
31819;DHT22;18384;48.860;9.188;2024-02-21T09:26:44;11.10;91.60
31819;DHT22;18384;48.860;9.188;2024-02-21T09:29:10;11.10;91.10
31819;DHT22;18384;48.860;9.188;2024-02-21T09:31:36;11.10;91.30
31819;DHT22;18384;48.860;9.188;2024-02-21T09:34:04;11.10;91.20
31819;DHT22;18384;48.860;9.188;2024-02-21T09:36:30;11.20;91.70
31819;DHT22;18384;48.860;9.188;2024-02-21T09:38:56;11.20;91.10
31819;DHT22;18384;48.860;9.188;2024-02-21T09:41:26;11.20;91.10
31819;DHT22;18384;48.860;9.188;2024-02-21T09:43:55;11.30;91.00
31819;DHT22;18384;48.860;9.188;2024-02-21T09:52:15;11.40;91.40
31819;DHT22;18384;48.860;9.188;2024-02-21T09:54:41;11.70;90.70
31819;DHT22;18384;48.860;9.188;2024-02-21T09:57:10;11.80;91.00
31819;DHT22;18384;48.860;9.188;2024-02-21T09:59:37;11.80;90.50
31819;DHT22;18384;48.860;9.188;2024-02-21T10:02:03;11.90;90.10
31819;DHT22;18384;48.860;9.188;2024-02-21T10:04:30;12.00;90.40
31819;DHT22;18384;48.860;9.188;2024-02-21T10:06:57;12.00;90.10
31819;DHT22;18384;48.860;9.188;2024-02-21T10:09:28;12.10;90.40
31819;DHT22;18384;48.860;9.188;2024-02-21T10:11:55;12.20;89.40
31819;DHT22;18384;48.860;9.188;2024-02-21T10:14:21;12.20;88.60
31819;DHT22;18384;48.860;9.188;2024-02-21T10:16:49;12.20;88.00
31819;DHT22;18384;48.860;9.188;2024-02-21T10:19:23;12.20;87.70
31819;DHT22;18384;48.860;9.188;2024-02-21T10:22:03;12.30;87.20
31819;DHT22;18384;48.860;9.188;2024-02-21T10:24:36;12.40;88.90
31819;DHT22;18384;48.860;9.188;2024-02-21T10:27:09;12.50;89.40
31819;DHT22;18384;48.860;9.188;2024-02-21T10:29:39;12.60;89.00
31819;DHT22;18384;48.860;9.188;2024-02-21T10:32:13;12.60;87.90
31819;DHT22;18384;48.860;9.188;2024-02-21T10:34:41;12.60;88.50
31819;DHT22;18384;48.860;9.188;2024-02-21T10:37:09;12.70;89.00
31819;DHT22;18384;48.860;9.188;2024-02-21T10:39:39;12.70;89.10
31819;DHT22;18384;48.860;9.188;2024-02-21T10:42:06;12.70;87.40
31819;DHT22;18384;48.860;9.188;2024-02-21T10:44:37;12.70;86.50
31819;DHT22;18384;48.860;9.188;2024-02-21T10:47:08;12.80;89.10
31819;DHT22;18384;48.860;9.188;2024-02-21T10:49:41;12.80;88.50
31819;DHT22;18384;48.860;9.188;2024-02-21T10:52:44;13.00;88.30
31819;DHT22;18384;48.860;9.188;2024-02-21T10:55:41;13.00;85.60
31819;DHT22;18384;48.860;9.188;2024-02-21T10:58:15;13.00;86.10
31819;DHT22;18384;48.860;9.188;2024-02-21T11:00:41;13.00;86.50
31819;DHT22;18384;48.860;9.188;2024-02-21T11:03:09;13.10;87.60
31819;DHT22;18384;48.860;9.188;2024-02-21T11:05:35;13.10;85.80
31819;DHT22;18384;48.860;9.188;2024-02-21T11:08:05;13.10;86.20
31819;DHT22;18384;48.860;9.188;2024-02-21T11:10:31;13.00;86.40
31819;DHT22;18384;48.860;9.188;2024-02-21T11:13:08;13.10;85.70
31819;DHT22;18384;48.860;9.188;2024-02-21T11:15:34;13.10;86.20
31819;DHT22;18384;48.860;9.188;2024-02-21T11:18:00;13.20;85.30
31819;DHT22;18384;48.860;9.188;2024-02-21T11:20:34;13.20;85.90
31819;DHT22;18384;48.860;9.188;2024-02-21T11:23:01;13.20;85.40
31819;DHT22;18384;48.860;9.188;2024-02-21T11:25:28;13.20;85.50
31819;DHT22;18384;48.860;9.188;2024-02-21T11:28:02;13.20;85.90
31819;DHT22;18384;48.860;9.188;2024-02-21T11:30:30;13.40;85.30
31819;DHT22;18384;48.860;9.188;2024-02-21T11:33:02;13.30;83.00
31819;DHT22;18384;48.860;9.188;2024-02-21T11:35:33;13.50;85.10
31819;DHT22;18384;48.860;9.188;2024-02-21T11:38:10;13.50;85.10
31819;DHT22;18384;48.860;9.188;2024-02-21T11:40:46;13.60;85.90
31819;DHT22;18384;48.860;9.188;2024-02-21T11:43:12;13.70;85.60
31819;DHT22;18384;48.860;9.188;2024-02-21T11:45:38;13.70;84.50
31819;DHT22;18384;48.860;9.188;2024-02-21T11:48:08;13.70;85.00
31819;DHT22;18384;48.860;9.188;2024-02-21T11:50:35;13.80;84.20
31819;DHT22;18384;48.860;9.188;2024-02-21T11:53:05;13.90;82.10
31819;DHT22;18384;48.860;9.188;2024-02-21T11:55:31;13.90;83.20
31819;DHT22;18384;48.860;9.188;2024-02-21T11:57:57;13.90;80.90
31819;DHT22;18384;48.860;9.188;2024-02-21T12:00:25;13.90;80.50
31819;DHT22;18384;48.860;9.188;2024-02-21T12:02:51;14.00;81.80
31819;DHT22;18384;48.860;9.188;2024-02-21T12:05:19;14.00;81.30
31819;DHT22;18384;48.860;9.188;2024-02-21T12:07:46;14.70;82.20
31819;DHT22;18384;48.860;9.188;2024-02-21T12:10:13;14.00;81.40
31819;DHT22;18384;48.860;9.188;2024-02-21T12:12:39;14.00;81.70
31819;DHT22;18384;48.860;9.188;2024-02-21T12:15:08;13.90;82.60
31819;DHT22;18384;48.860;9.188;2024-02-21T12:17:39;13.90;82.50
31819;DHT22;18384;48.860;9.188;2024-02-21T12:20:06;14.00;82.70
31819;DHT22;18384;48.860;9.188;2024-02-21T12:22:37;14.00;81.90
31819;DHT22;18384;48.860;9.188;2024-02-21T12:25:04;14.00;83.30
31819;DHT22;18384;48.860;9.188;2024-02-21T12:27:41;14.00;84.40
31819;DHT22;18384;48.860;9.188;2024-02-21T12:30:07;14.00;84.70
31819;DHT22;18384;48.860;9.188;2024-02-21T12:32:36;14.00;83.60
31819;DHT22;18384;48.860;9.188;2024-02-21T12:35:02;14.10;82.90
31819;DHT22;18384;48.860;9.188;2024-02-21T12:37:29;14.10;81.50
31819;DHT22;18384;48.860;9.188;2024-02-21T12:39:55;14.20;81.20
31819;DHT22;18384;48.860;9.188;2024-02-21T12:42:21;14.20;82.00
31819;DHT22;18384;48.860;9.188;2024-02-21T12:44:49;14.20;83.20
31819;DHT22;18384;48.860;9.188;2024-02-21T12:47:15;14.20;82.10
31819;DHT22;18384;48.860;9.188;2024-02-21T12:49:41;14.20;82.50
31819;DHT22;18384;48.860;9.188;2024-02-21T12:52:07;14.30;81.50
31819;DHT22;18384;48.860;9.188;2024-02-21T12:54:33;14.40;80.30
31819;DHT22;18384;48.860;9.188;2024-02-21T12:57:00;14.30;80.70
31819;DHT22;18384;48.860;9.188;2024-02-21T12:59:29;14.40;80.50
31819;DHT22;18384;48.860;9.188;2024-02-21T13:01:55;14.40;78.90
31819;DHT22;18384;48.860;9.188;2024-02-21T13:04:22;14.40;79.80
31819;DHT22;18384;48.860;9.188;2024-02-21T13:06:48;14.40;78.80
31819;DHT22;18384;48.860;9.188;2024-02-21T13:09:15;14.30;81.50
31819;DHT22;18384;48.860;9.188;2024-02-21T13:11:42;14.40;79.20
31819;DHT22;18384;48.860;9.188;2024-02-21T13:14:10;14.40;78.30
31819;DHT22;18384;48.860;9.188;2024-02-21T13:16:36;14.40;77.60
31819;DHT22;18384;48.860;9.188;2024-02-21T13:19:06;14.40;77.00
31819;DHT22;18384;48.860;9.188;2024-02-21T13:21:36;14.40;77.50
31819;DHT22;18384;48.860;9.188;2024-02-21T13:24:03;14.40;79.20
31819;DHT22;18384;48.860;9.188;2024-02-21T13:26:29;14.40;77.50
31819;DHT22;18384;48.860;9.188;2024-02-21T13:28:55;14.40;77.10
31819;DHT22;18384;48.860;9.188;2024-02-21T13:31:21;14.40;77.90
31819;DHT22;18384;48.860;9.188;2024-02-21T13:33:47;14.50;78.40
31819;DHT22;18384;48.860;9.188;2024-02-21T13:36:13;14.50;78.90
31819;DHT22;18384;48.860;9.188;2024-02-21T13:38:40;14.00;78.20
31819;DHT22;18384;48.860;9.188;2024-02-21T13:41:06;14.50;75.40
31819;DHT22;18384;48.860;9.188;2024-02-21T13:43:33;14.50;75.60
31819;DHT22;18384;48.860;9.188;2024-02-21T13:46:01;14.60;76.00
31819;DHT22;18384;48.860;9.188;2024-02-21T13:48:35;14.50;76.90
31819;DHT22;18384;48.860;9.188;2024-02-21T13:51:01;14.50;77.10
31819;DHT22;18384;48.860;9.188;2024-02-21T13:53:30;14.50;77.40
31819;DHT22;18384;48.860;9.188;2024-02-21T13:55:56;14.60;76.70
31819;DHT22;18384;48.860;9.188;2024-02-21T13:58:22;14.60;78.60
31819;DHT22;18384;48.860;9.188;2024-02-21T14:00:48;14.60;78.70
31819;DHT22;18384;48.860;9.188;2024-02-21T14:03:14;14.60;78.40
31819;DHT22;18384;48.860;9.188;2024-02-21T14:05:40;14.60;77.00
31819;DHT22;18384;48.860;9.188;2024-02-21T14:08:07;14.50;76.70
31819;DHT22;18384;48.860;9.188;2024-02-21T14:10:33;14.50;76.00
31819;DHT22;18384;48.860;9.188;2024-02-21T14:12:59;14.50;76.80
31819;DHT22;18384;48.860;9.188;2024-02-21T14:15:26;14.50;79.70
31819;DHT22;18384;48.860;9.188;2024-02-21T14:17:52;14.50;78.20
31819;DHT22;18384;48.860;9.188;2024-02-21T14:20:18;14.50;76.30
31819;DHT22;18384;48.860;9.188;2024-02-21T14:22:44;14.50;77.10
31819;DHT22;18384;48.860;9.188;2024-02-21T14:25:10;14.50;76.80
31819;DHT22;18384;48.860;9.188;2024-02-21T14:27:37;14.40;78.30
31819;DHT22;18384;48.860;9.188;2024-02-21T14:30:04;14.50;79.70
31819;DHT22;18384;48.860;9.188;2024-02-21T14:32:31;14.40;80.20
31819;DHT22;18384;48.860;9.188;2024-02-21T14:34:57;14.30;80.40
31819;DHT22;18384;48.860;9.188;2024-02-21T14:37:24;14.30;80.20
31819;DHT22;18384;48.860;9.188;2024-02-21T14:39:50;14.20;80.00
31819;DHT22;18384;48.860;9.188;2024-02-21T14:42:16;14.10;79.90
31819;DHT22;18384;48.860;9.188;2024-02-21T14:44:43;14.10;80.50
31819;DHT22;18384;48.860;9.188;2024-02-21T14:47:09;14.10;80.90
31819;DHT22;18384;48.860;9.188;2024-02-21T14:49:35;14.10;81.00
31819;DHT22;18384;48.860;9.188;2024-02-21T14:52:01;14.10;80.50
31819;DHT22;18384;48.860;9.188;2024-02-21T14:54:28;14.10;81.00
31819;DHT22;18384;48.860;9.188;2024-02-21T14:56:54;14.10;81.60
31819;DHT22;18384;48.860;9.188;2024-02-21T14:59:20;14.10;81.00
31819;DHT22;18384;48.860;9.188;2024-02-21T15:01:46;14.10;81.50
31819;DHT22;18384;48.860;9.188;2024-02-21T15:04:12;14.10;81.70
31819;DHT22;18384;48.860;9.188;2024-02-21T15:06:39;14.10;82.40
31819;DHT22;18384;48.860;9.188;2024-02-21T15:09:05;14.10;81.30
31819;DHT22;18384;48.860;9.188;2024-02-21T15:11:33;14.10;81.80
31819;DHT22;18384;48.860;9.188;2024-02-21T15:13:59;14.10;81.90
31819;DHT22;18384;48.860;9.188;2024-02-21T15:16:25;14.00;80.10
31819;DHT22;18384;48.860;9.188;2024-02-21T15:18:51;14.00;79.30
31819;DHT22;18384;48.860;9.188;2024-02-21T15:21:17;14.00;77.10
31819;DHT22;18384;48.860;9.188;2024-02-21T15:23:44;13.90;78.20
31819;DHT22;18384;48.860;9.188;2024-02-21T15:26:10;13.90;77.00
31819;DHT22;18384;48.860;9.188;2024-02-21T15:28:36;13.90;75.40
31819;DHT22;18384;48.860;9.188;2024-02-21T15:31:03;13.80;74.90
31819;DHT22;18384;48.860;9.188;2024-02-21T15:33:29;13.80;75.30
31819;DHT22;18384;48.860;9.188;2024-02-21T15:35:55;13.80;76.00
31819;DHT22;18384;48.860;9.188;2024-02-21T15:38:21;13.70;74.20
31819;DHT22;18384;48.860;9.188;2024-02-21T15:40:47;13.70;74.90
31819;DHT22;18384;48.860;9.188;2024-02-21T15:43:13;13.60;74.90
31819;DHT22;18384;48.860;9.188;2024-02-21T15:45:39;13.60;73.50